WetterOnline ( https://www.wetteronline.de )

Wetter aktuell Duisburg

Aktuelles Wetter: Essen (161m)

6-stündlich | Neueste Meldungen
Ortszeit Temperatur Wetter
Mi, 18.05. 2:00 19.4° C bewölkt
Di, 17.05. 20:00 21.2° C wolkig
Di, 17.05. 14:00 19.3° C bedeckt
Di, 17.05. 8:00 14.8° C bedeckt
Di, 17.05. 2:00 14.2° C wolkenlos
Mo, 16.05. 20:00 18.6° C wolkig
Mo, 16.05. 14:00 25.1° C leicht bewölkt
Mo, 16.05. 8:00 20.0° C wolkig
Ortszeit Temperatur Wetter
Mi, 18.05. 6:00 18.4° C leicht bewölkt
Mi, 18.05. 5:50 18.4° C leicht bewölkt
Mi, 18.05. 5:40 18.3° C leicht bewölkt
Mi, 18.05. 5:30 18.6° C fast wolkenlos
Mi, 18.05. 5:20 18.6° C fast wolkenlos
Mi, 18.05. 5:10 18.4° C wolkenlos
Mi, 18.05. 5:00 18.5° C fast wolkenlos
Mi, 18.05. 4:30 18.6° C wolkig
Mi, 18.05. 4:00 18.8° C bewölkt
Mi, 18.05. 3:30 19.0° C bedeckt
Mi, 18.05. 3:00 19.1° C fast wolkenlos
Ortszeit Relative Feuchte Sichtweite
Mi, 18.05. 2:00 65% 55 km
Di, 17.05. 20:00 68% 50 km
Di, 17.05. 14:00 69% 45 km
Di, 17.05. 8:00 88% 19 km
Di, 17.05. 2:00 97% 5.0 km
Mo, 16.05. 20:00 88% 12 km
Mo, 16.05. 14:00 49% 45 km
Mo, 16.05. 8:00 50% 45 km
Ortszeit Relative Feuchte Sichtweite
Mi, 18.05. 6:00 67% 60 km
Mi, 18.05. 5:50 67% -
Mi, 18.05. 5:40 68% -
Mi, 18.05. 5:30 66% 65 km
Mi, 18.05. 5:20 66% -
Mi, 18.05. 5:10 67% -
Mi, 18.05. 5:00 67% 55 km
Mi, 18.05. 4:30 67% 60 km
Mi, 18.05. 4:00 67% 50 km
Mi, 18.05. 3:30 66% 55 km
Mi, 18.05. 3:00 65% 55 km
Ortszeit Niederschlagsmenge Niederschlagsart
Mi, 18.05. 2:00 0.0 l/m2 in 6 Std. -
Di, 17.05. 20:00 0.1 l/m2 in 12 Std. -
Di, 17.05. 14:00 0.1 l/m2 in 6 Std. Regen
Di, 17.05. 8:00 0.0 l/m2 in 12 Std. -
Di, 17.05. 2:00 0.0 l/m2 in 6 Std. -
Mo, 16.05. 20:00 21 l/m2 in 12 Std. Regen
Mo, 16.05. 14:00 0.1 l/m2 in 6 Std. Regen
Mo, 16.05. 8:00 0.0 l/m2 in 12 Std. -
Ortszeit Niederschlagsmenge Niederschlagsart
Mi, 18.05. 6:00 0.0 l/m2 in 1 Std. -
Mi, 18.05. 5:50 keine Meldung -
Mi, 18.05. 5:40 keine Meldung -
Mi, 18.05. 5:30 0.0 l/m2 in 1 Std. -
Mi, 18.05. 5:20 keine Meldung -
Mi, 18.05. 5:10 keine Meldung -
Mi, 18.05. 5:00 0.0 l/m2 in 1 Std. -
Mi, 18.05. 4:30 0.0 l/m2 in 1 Std. -
Mi, 18.05. 4:00 0.0 l/m2 in 1 Std. -
Mi, 18.05. 3:30 0.0 l/m2 in 1 Std. -
Mi, 18.05. 3:00 0.0 l/m2 in 1 Std. -
Ortszeit Stärke Spitze Richtung
km/h Bft. km/h Grad Sektor
Mi, 18.05. 2:00 17 3 30 160° S
Di, 17.05. 20:00 13 3 24 90° O
Di, 17.05. 14:00 6 1 15 110° O
Di, 17.05. 8:00 7 2 14 180° S
Di, 17.05. 2:00 4 1 11 220° SW
Mo, 16.05. 20:00 4 1 36 320° NW
Mo, 16.05. 14:00 9 2 24 240° SW
Mo, 16.05. 8:00 7 2 18 170° S
Ortszeit Stärke Spitze Richtung
km/h Bft. km/h Grad Sektor
Mi, 18.05. 6:00 14 3 25 160° S
Mi, 18.05. 5:50 14 3 - 160° S
Mi, 18.05. 5:40 14 3 - 160° S
Mi, 18.05. 5:30 14 3 25 160° S
Mi, 18.05. 5:20 14 3 - 160° S
Mi, 18.05. 5:10 14 3 - 160° S
Mi, 18.05. 5:00 18 3 29 160° S
Mi, 18.05. 4:30 18 3 29 150° SO
Mi, 18.05. 4:00 19 3 30 160° S
Mi, 18.05. 3:30 18 3 29 160° S
Mi, 18.05. 3:00 14 3 29 160° S
Ortszeit Untergrenze Bedeckung Gattung
total tief tief mittel hoch
Mi, 18.05. 2:00 4800 m 7/8 7/8 - - -
Di, 17.05. 20:00 5100 m 8/8 8/8 - - -
Di, 17.05. 14:00 1290 m 8/8 8/8 - - -
Di, 17.05. 8:00 3000 m 8/8 8/8 - - -
Di, 17.05. 2:00 - 0/8 0/8 - - -
Mo, 16.05. 20:00 960 m 8/8 1/8 - - -
Mo, 16.05. 14:00 3000 m 3/8 3/8 - - -
Mo, 16.05. 8:00 5100 m 8/8 7/8 - - -
Ortszeit Bedeckungsgrad in Achtel und Wolkenuntergrenze
Mi, 18.05. 6:00 3(8400m) 4(10500m)
Mi, 18.05. 5:50 3(8400m) 4(10500m)
Mi, 18.05. 5:40 3
Mi, 18.05. 5:30 2(9000m)
Mi, 18.05. 5:20 2(9000m)
Mi, 18.05. 5:10 keine Wolken
Mi, 18.05. 5:00 1(4800m)
Mi, 18.05. 4:30 6(4800m)
Mi, 18.05. 4:00 7(4800m) 8(10500m)
Mi, 18.05. 3:30 8(4500m)
Mi, 18.05. 3:00 1(5100m)
Ortszeit Luftdruck NN (hPa) Tendenz (hPa in 3 Std.)
Mi, 18.05. 2:00 1020 0,0
Di, 17.05. 20:00 1019 - 1,0
Di, 17.05. 14:00 1022 - 0,5
Di, 17.05. 8:00 1021 + 0,7
Di, 17.05. 2:00 1021 + 0,8
Mo, 16.05. 20:00 1018 + 1,1
Mo, 16.05. 14:00 1015 + 0,2
Mo, 16.05. 8:00 1014 0,0
Ortszeit Luftdruck NN (hPa) Tendenz (hPa in 3 Std.)
Mi, 18.05. 6:00 1020 + 0,5
Mi, 18.05. 5:50 1020 keine Meldung
Mi, 18.05. 5:40 1020 keine Meldung
Mi, 18.05. 5:30 1020 + 0,4
Mi, 18.05. 5:20 1020 keine Meldung
Mi, 18.05. 5:10 1020 keine Meldung
Mi, 18.05. 5:00 1020 + 0,5
Mi, 18.05. 4:30 1020 + 0,6
Mi, 18.05. 4:00 1020 + 0,6
Mi, 18.05. 3:30 1020 + 0,5
Mi, 18.05. 3:00 1020 + 0,4
Ortszeit Schneehöhe (cm)
Mi, 18.05. 2:00 0
Di, 17.05. 20:00 0
Di, 17.05. 14:00 0
Di, 17.05. 8:00 0
Di, 17.05. 2:00 0
Mo, 16.05. 20:00 0
Mo, 16.05. 14:00 0
Mo, 16.05. 8:00 0
Ortszeit Schneehöhe (cm)
Mi, 18.05. 6:00 0
Mi, 18.05. 5:50 0
Mi, 18.05. 5:40 0
Mi, 18.05. 5:30 0
Mi, 18.05. 5:20 0
Mi, 18.05. 5:10 0
Mi, 18.05. 5:00 0
Mi, 18.05. 4:30 0
Mi, 18.05. 4:00 0
Mi, 18.05. 3:30 0
Mi, 18.05. 3:00 0
Link zu dieser Seite / Seite empfehlen

Das Wetter in ...